createdAt,value
2022-11-09T00:00:05.969Z,41.42
2022-11-09T00:02:32.700Z,41.32
2022-11-09T00:04:59.182Z,41.52
2022-11-09T00:07:25.565Z,41.45
2022-11-09T00:09:52.020Z,41.24
2022-11-09T00:12:18.398Z,41.40
2022-11-09T00:14:44.754Z,41.40
2022-11-09T00:17:11.166Z,41.31
2022-11-09T00:19:37.535Z,41.45
2022-11-09T00:22:04.039Z,41.45
2022-11-09T00:24:30.561Z,41.57
2022-11-09T00:26:56.958Z,41.44
2022-11-09T00:29:23.470Z,41.53
2022-11-09T00:31:50.454Z,41.63
2022-11-09T00:34:17.096Z,41.47
2022-11-09T00:36:43.649Z,41.76
2022-11-09T00:39:10.021Z,41.61
2022-11-09T00:41:36.366Z,41.47
2022-11-09T00:44:02.967Z,41.57
2022-11-09T00:46:29.823Z,41.56
2022-11-09T00:48:56.508Z,41.60
2022-11-09T00:51:22.883Z,41.63
2022-11-09T00:53:53.877Z,41.55
2022-11-09T00:56:21.384Z,41.54
2022-11-09T00:58:47.729Z,41.65
2022-11-09T01:01:17.833Z,41.75
2022-11-09T01:03:45.330Z,41.45
2022-11-09T01:06:22.967Z,41.66
2022-11-09T01:08:49.738Z,41.55
2022-11-09T01:11:18.193Z,41.69
2022-11-09T01:13:45.651Z,41.71
2022-11-09T01:16:15.357Z,41.57
2022-11-09T01:18:42.238Z,41.61
2022-11-09T01:21:11.518Z,41.82
2022-11-09T01:23:40.390Z,41.77
2022-11-09T01:26:09.234Z,42.00
2022-11-09T01:28:36.027Z,41.63
2022-11-09T01:31:05.120Z,41.92
2022-11-09T01:33:32.242Z,41.89
2022-11-09T01:36:03.709Z,42.10
2022-11-09T01:38:30.180Z,41.73
2022-11-09T01:40:56.782Z,41.90
2022-11-09T01:43:25.067Z,42.08
2022-11-09T01:46:14.126Z,42.15
2022-11-09T01:49:03.555Z,42.28
2022-11-09T01:51:36.183Z,42.35
2022-11-09T01:54:10.676Z,42.04
2022-11-09T01:56:38.094Z,41.99
2022-11-09T01:59:11.355Z,42.31
2022-11-09T02:01:37.972Z,42.21
2022-11-09T02:04:22.879Z,42.55
2022-11-09T02:06:50.446Z,42.26
2022-11-09T02:09:26.686Z,42.46
2022-11-09T02:11:53.078Z,42.26
2022-11-09T02:14:22.732Z,42.38
2022-11-09T02:16:49.877Z,42.42
2022-11-09T02:19:16.418Z,42.35
2022-11-09T02:21:42.872Z,42.43
2022-11-09T02:24:09.450Z,42.60
2022-11-09T02:26:47.722Z,42.86
2022-11-09T02:29:18.651Z,42.47
2022-11-09T02:31:57.323Z,42.66
2022-11-09T02:34:25.267Z,42.57
2022-11-09T02:36:52.042Z,42.13
2022-11-09T02:39:21.253Z,42.53
2022-11-09T02:42:15.766Z,42.59
2022-11-09T02:44:51.798Z,42.77
2022-11-09T02:47:18.118Z,42.46
2022-11-09T02:49:44.448Z,42.57
2022-11-09T02:52:10.931Z,42.48
2022-11-09T02:54:37.529Z,42.66
2022-11-09T02:57:03.999Z,42.83
2022-11-09T02:59:30.412Z,42.70
2022-11-09T03:01:56.731Z,42.80
2022-11-09T03:04:23.084Z,42.77
2022-11-09T03:06:49.539Z,42.78
2022-11-09T03:09:16.783Z,43.00
2022-11-09T03:11:43.706Z,42.95
2022-11-09T03:14:10.500Z,43.11
2022-11-09T03:16:38.482Z,42.95
2022-11-09T03:19:06.039Z,43.07
2022-11-09T03:21:32.597Z,42.80
2022-11-09T03:23:59.083Z,43.16
2022-11-09T03:26:26.832Z,43.30
2022-11-09T03:28:53.192Z,43.17
2022-11-09T03:31:19.648Z,43.33
2022-11-09T03:33:46.039Z,43.34
2022-11-09T03:36:12.678Z,43.41
2022-11-09T03:38:39.317Z,43.39
2022-11-09T03:41:05.722Z,43.57
2022-11-09T03:43:32.076Z,43.48
2022-11-09T03:45:58.505Z,43.68
2022-11-09T03:48:25.018Z,43.76
2022-11-09T03:50:51.792Z,43.94
2022-11-09T03:53:18.516Z,43.52
2022-11-09T03:55:45.809Z,43.70
2022-11-09T03:58:15.538Z,43.90
2022-11-09T04:00:42.013Z,43.84
2022-11-09T04:03:08.429Z,43.92
2022-11-09T04:05:34.761Z,43.94
2022-11-09T04:08:01.773Z,43.89
2022-11-09T04:10:28.192Z,43.97
2022-11-09T04:12:54.637Z,43.90
2022-11-09T04:15:21.460Z,44.01
2022-11-09T04:17:55.330Z,44.34
2022-11-09T04:20:21.699Z,43.96
2022-11-09T04:22:54.951Z,44.27
2022-11-09T04:25:21.343Z,43.98
2022-11-09T04:27:47.740Z,43.84
2022-11-09T04:30:14.238Z,44.12
2022-11-09T04:32:40.727Z,44.05
2022-11-09T04:35:07.654Z,44.16
2022-11-09T04:37:34.001Z,44.18
2022-11-09T04:40:00.397Z,44.09
2022-11-09T04:42:26.762Z,43.97
2022-11-09T04:44:53.139Z,44.24
2022-11-09T04:47:19.484Z,44.10
2022-11-09T04:49:46.345Z,44.19
2022-11-09T04:52:12.863Z,44.10
2022-11-09T04:54:39.202Z,44.14
2022-11-09T04:57:05.520Z,44.25
2022-11-09T04:59:32.036Z,44.03
2022-11-09T05:01:58.387Z,44.41
2022-11-09T05:04:24.942Z,44.06
2022-11-09T05:06:51.500Z,44.00
2022-11-09T05:09:17.856Z,44.06
2022-11-09T05:11:44.162Z,44.27
2022-11-09T05:14:10.781Z,44.22
2022-11-09T05:16:37.343Z,44.20
2022-11-09T05:19:03.730Z,44.22
2022-11-09T05:21:31.432Z,44.17
2022-11-09T05:24:00.926Z,44.26
2022-11-09T05:26:30.321Z,44.44
2022-11-09T05:28:59.161Z,43.98
2022-11-09T05:31:27.122Z,44.32
2022-11-09T05:33:54.711Z,44.24
2022-11-09T05:36:21.853Z,44.23
2022-11-09T05:38:48.915Z,44.27
2022-11-09T05:41:16.113Z,44.18
2022-11-09T05:43:48.356Z,44.51
2022-11-09T05:46:16.334Z,44.39
2022-11-09T05:48:43.710Z,44.24
2022-11-09T05:51:13.605Z,44.39
2022-11-09T05:53:45.196Z,44.37
2022-11-09T05:56:13.900Z,44.34
2022-11-09T05:58:42.144Z,44.44
2022-11-09T06:01:11.577Z,44.63
2022-11-09T06:03:39.079Z,44.52
2022-11-09T06:06:08.914Z,44.57
2022-11-09T06:08:35.835Z,44.17
2022-11-09T06:11:05.993Z,44.37
2022-11-09T06:13:32.862Z,44.29
2022-11-09T06:16:01.021Z,44.46
2022-11-09T06:18:29.767Z,44.58
2022-11-09T06:20:58.584Z,44.76
2022-11-09T06:23:25.743Z,44.75
2022-11-09T06:26:13.222Z,45.17
2022-11-09T06:28:41.048Z,44.78
2022-11-09T06:31:13.344Z,44.84
2022-11-09T06:33:39.961Z,44.67
2022-11-09T06:36:06.818Z,44.66
2022-11-09T06:41:02.695Z,44.73
2022-11-09T06:43:29.426Z,44.63
2022-11-09T06:45:56.026Z,44.71
2022-11-09T06:48:22.901Z,44.96
2022-11-09T06:50:49.434Z,45.07
2022-11-09T06:53:17.661Z,45.33
2022-11-09T06:55:50.217Z,45.20
2022-11-09T06:58:17.833Z,45.50
2022-11-09T07:00:45.217Z,45.45
2022-11-09T07:03:16.390Z,45.85
2022-11-09T07:05:43.198Z,45.59
2022-11-09T07:08:10.128Z,45.78
2022-11-09T07:10:37.280Z,45.87
2022-11-09T07:13:04.681Z,45.91
2022-11-09T07:15:31.660Z,45.59
2022-11-09T07:18:02.650Z,46.31
2022-11-09T07:20:30.616Z,45.84
2022-11-09T07:22:57.035Z,45.82
2022-11-09T07:25:25.118Z,46.12
2022-11-09T07:27:51.899Z,46.07
2022-11-09T07:30:18.754Z,46.01
2022-11-09T07:35:32.717Z,45.80
2022-11-09T07:38:00.591Z,45.66
2022-11-09T07:40:27.095Z,45.63
2022-11-09T07:42:53.404Z,45.76
2022-11-09T07:45:19.697Z,45.77
2022-11-09T07:47:45.995Z,45.77
2022-11-09T07:50:12.532Z,45.82
2022-11-09T07:52:38.918Z,45.68
2022-11-09T07:55:06.069Z,46.00
2022-11-09T07:57:32.738Z,45.88
2022-11-09T07:59:59.205Z,45.58
2022-11-09T08:02:25.838Z,45.49
2022-11-09T08:04:55.289Z,45.54
2022-11-09T08:07:23.717Z,45.83
2022-11-09T08:09:50.063Z,45.47
2022-11-09T08:12:16.426Z,45.61
2022-11-09T08:14:45.864Z,45.49
2022-11-09T08:17:12.442Z,45.35
2022-11-09T08:19:39.105Z,45.66
2022-11-09T08:22:06.784Z,45.75
2022-11-09T08:24:34.658Z,45.74
2022-11-09T08:27:00.966Z,45.61
2022-11-09T08:29:27.251Z,45.77
2022-11-09T08:31:53.630Z,45.57
2022-11-09T08:34:20.042Z,46.00
2022-11-09T08:36:46.445Z,45.79
2022-11-09T08:39:13.010Z,45.89
2022-11-09T08:41:39.508Z,45.73
2022-11-09T08:44:06.079Z,45.72
2022-11-09T08:46:35.806Z,45.71
2022-11-09T08:49:06.685Z,45.80
2022-11-09T08:51:33.208Z,45.73
2022-11-09T08:53:59.638Z,45.87
2022-11-09T08:56:26.064Z,45.29
2022-11-09T08:58:52.633Z,45.79
2022-11-09T09:01:19.254Z,45.95
2022-11-09T09:03:46.845Z,45.96
2022-11-09T09:06:15.555Z,45.92
2022-11-09T09:08:42.091Z,45.78
2022-11-09T09:11:09.118Z,45.84
2022-11-09T09:13:39.124Z,45.70
2022-11-09T09:16:14.411Z,45.93
2022-11-09T09:18:41.016Z,45.81
2022-11-09T09:21:10.474Z,45.83
2022-11-09T09:23:39.306Z,45.81
2022-11-09T09:26:06.301Z,45.77
2022-11-09T09:28:32.927Z,45.86
2022-11-09T09:31:00.774Z,45.89
2022-11-09T09:33:28.168Z,45.52
2022-11-09T09:35:58.805Z,45.51
2022-11-09T09:38:26.662Z,45.44
2022-11-09T09:41:01.755Z,45.32
2022-11-09T09:43:42.555Z,44.84
2022-11-09T09:46:33.401Z,45.04
2022-11-09T09:49:29.642Z,44.64
2022-11-09T09:52:18.091Z,44.32
2022-11-09T09:54:53.139Z,44.34
2022-11-09T09:57:22.678Z,44.31
2022-11-09T09:59:54.940Z,43.81
2022-11-09T10:02:29.758Z,43.20
2022-11-09T10:05:01.943Z,43.22
2022-11-09T10:07:34.911Z,42.76
2022-11-09T10:10:26.763Z,42.31
2022-11-09T10:13:14.806Z,42.32
2022-11-09T10:15:50.275Z,41.90
2022-11-09T10:18:26.034Z,41.73
2022-11-09T10:21:11.352Z,41.66
2022-11-09T10:23:54.310Z,41.48
2022-11-09T10:26:28.173Z,41.32
2022-11-09T10:29:15.487Z,41.55
2022-11-09T10:31:45.661Z,41.93
2022-11-09T10:34:23.483Z,41.13
2022-11-09T10:37:15.251Z,41.14
2022-11-09T10:39:51.915Z,40.79
2022-11-09T10:42:18.346Z,41.05
2022-11-09T10:44:44.688Z,40.82
2022-11-09T10:47:16.806Z,40.22
2022-11-09T10:49:43.441Z,40.71
2022-11-09T10:52:44.302Z,40.74
2022-11-09T10:55:32.630Z,40.55
2022-11-09T10:58:03.625Z,40.45
2022-11-09T11:00:30.308Z,40.48
2022-11-09T11:02:57.318Z,40.80
2022-11-09T11:05:26.520Z,40.63
2022-11-09T11:07:52.992Z,39.95
2022-11-09T11:10:20.990Z,40.09
2022-11-09T11:12:59.764Z,39.48
2022-11-09T11:15:38.477Z,39.24
2022-11-09T11:18:13.065Z,38.94
2022-11-09T11:20:39.554Z,39.13
2022-11-09T11:23:11.172Z,39.09
2022-11-09T11:25:58.064Z,38.96
2022-11-09T11:28:33.803Z,39.22
2022-11-09T11:31:00.438Z,39.55
2022-11-09T11:33:26.949Z,39.68
2022-11-09T11:36:04.999Z,39.57
2022-11-09T11:39:12.838Z,39.08
2022-11-09T11:41:39.432Z,39.51
2022-11-09T11:44:41.909Z,39.02
2022-11-09T11:47:41.466Z,39.00
2022-11-09T11:50:32.867Z,38.36
2022-11-09T11:52:59.624Z,38.44
2022-11-09T11:55:31.818Z,37.97
2022-11-09T11:58:13.511Z,37.85
2022-11-09T12:00:49.524Z,38.06
2022-11-09T12:03:39.115Z,38.13
2022-11-09T12:06:23.543Z,37.65
2022-11-09T12:09:18.330Z,37.91
2022-11-09T12:12:01.163Z,37.38
2022-11-09T12:14:56.613Z,37.79
2022-11-09T12:17:46.185Z,37.00
2022-11-09T12:20:25.239Z,36.76
2022-11-09T12:23:15.394Z,37.31
2022-11-09T12:26:22.877Z,37.37
2022-11-09T12:29:05.632Z,37.40
2022-11-09T12:31:59.957Z,37.56
2022-11-09T12:34:38.871Z,37.97
2022-11-09T12:37:13.283Z,37.39
2022-11-09T12:39:53.486Z,37.39
2022-11-09T12:42:37.419Z,37.22
2022-11-09T12:45:24.734Z,36.77
2022-11-09T12:47:54.658Z,36.94
2022-11-09T12:50:25.399Z,36.62
2022-11-09T12:52:52.777Z,36.57
2022-11-09T12:55:27.189Z,35.50
2022-11-09T12:58:00.536Z,36.08
2022-11-09T13:00:33.815Z,35.94
2022-11-09T13:03:15.248Z,35.80
2022-11-09T13:05:43.216Z,36.05
2022-11-09T13:08:19.033Z,36.02
2022-11-09T13:10:45.538Z,36.00
2022-11-09T13:13:12.109Z,36.39
2022-11-09T13:15:39.997Z,36.22
2022-11-09T13:18:46.052Z,35.80
2022-11-09T13:21:25.234Z,35.61
2022-11-09T13:24:01.266Z,36.00
2022-11-09T13:26:31.749Z,35.72
2022-11-09T13:29:23.111Z,36.03
2022-11-09T13:32:11.015Z,35.66
2022-11-09T13:34:54.503Z,35.81
2022-11-09T13:37:42.450Z,35.74
2022-11-09T13:40:35.877Z,34.70
2022-11-09T13:43:05.745Z,36.13
2022-11-09T13:45:44.155Z,35.72
2022-11-09T13:48:29.305Z,35.59
2022-11-09T13:50:58.978Z,35.79
2022-11-09T13:53:37.603Z,35.16
2022-11-09T13:56:27.843Z,35.54
2022-11-09T13:58:59.261Z,35.67
2022-11-09T14:01:38.303Z,35.33
2022-11-09T14:04:07.036Z,36.00
2022-11-09T14:06:33.546Z,35.85
2022-11-09T14:09:01.323Z,35.55
2022-11-09T14:12:04.086Z,35.93
2022-11-09T14:14:36.136Z,35.96
2022-11-09T14:17:22.131Z,35.60
2022-11-09T14:19:54.441Z,36.08
2022-11-09T14:22:20.947Z,36.11
2022-11-09T14:24:47.398Z,36.10
2022-11-09T14:27:22.349Z,35.73
2022-11-09T14:29:57.103Z,36.33
2022-11-09T14:32:31.749Z,36.04
2022-11-09T14:35:22.377Z,35.86
2022-11-09T14:37:50.560Z,36.05
2022-11-09T14:40:30.887Z,36.19
2022-11-09T14:43:05.291Z,36.40
2022-11-09T14:45:31.684Z,35.97
2022-11-09T14:48:00.191Z,36.24
2022-11-09T14:50:32.188Z,36.22
2022-11-09T14:53:00.294Z,36.38
2022-11-09T14:55:27.289Z,36.32
2022-11-09T14:57:55.764Z,36.66
2022-11-09T15:00:29.179Z,36.49
2022-11-09T15:02:56.817Z,36.76
2022-11-09T15:05:39.880Z,36.76
2022-11-09T15:08:20.214Z,36.70
2022-11-09T15:10:52.231Z,36.86
2022-11-09T15:13:27.795Z,36.66
2022-11-09T15:15:55.141Z,36.88
2022-11-09T15:18:33.450Z,37.08
2022-11-09T15:21:25.463Z,37.11
2022-11-09T15:24:10.046Z,37.39
2022-11-09T15:26:44.296Z,37.57
2022-11-09T15:29:37.198Z,37.63
2022-11-09T15:32:16.577Z,37.59
2022-11-09T15:34:56.350Z,37.29
2022-11-09T15:37:25.203Z,37.48
2022-11-09T15:39:51.861Z,37.78
2022-11-09T15:42:18.599Z,38.02
2022-11-09T15:44:45.022Z,37.91
2022-11-09T15:47:34.232Z,38.40
2022-11-09T15:50:07.860Z,38.21
2022-11-09T15:52:35.616Z,38.54
2022-11-09T15:55:02.016Z,38.68
2022-11-09T15:57:28.666Z,38.76
2022-11-09T15:59:55.266Z,38.67
2022-11-09T16:02:21.639Z,39.14
2022-11-09T16:04:48.033Z,39.21
2022-11-09T16:07:17.023Z,39.38
2022-11-09T16:09:43.835Z,39.69
2022-11-09T16:12:10.290Z,39.23
2022-11-09T16:14:38.306Z,39.33
2022-11-09T16:17:05.484Z,39.42
2022-11-09T16:19:31.978Z,39.63
2022-11-09T16:21:59.025Z,39.59
2022-11-09T16:24:25.659Z,39.71
2022-11-09T16:26:54.030Z,39.79
2022-11-09T16:29:23.630Z,39.85
2022-11-09T16:31:52.403Z,39.78
2022-11-09T16:34:19.837Z,39.41
2022-11-09T16:36:52.338Z,39.56
2022-11-09T16:39:22.105Z,39.54
2022-11-09T16:41:50.075Z,39.62
2022-11-09T16:44:20.757Z,39.52
2022-11-09T16:46:48.162Z,39.80
2022-11-09T16:49:14.835Z,39.83
2022-11-09T16:51:41.224Z,39.55
2022-11-09T16:54:07.801Z,39.66
2022-11-09T16:56:35.267Z,39.84
2022-11-09T16:59:01.848Z,40.05
2022-11-09T17:01:28.374Z,40.04
2022-11-09T17:03:56.276Z,40.14
2022-11-09T17:06:22.854Z,40.31
2022-11-09T17:08:49.462Z,40.38
2022-11-09T17:11:16.199Z,40.57
2022-11-09T17:13:42.919Z,40.68
2022-11-09T17:16:12.168Z,40.64
2022-11-09T17:18:39.397Z,40.88
2022-11-09T17:21:10.596Z,41.30
2022-11-09T17:23:37.981Z,40.93
2022-11-09T17:26:06.569Z,40.87
2022-11-09T17:28:33.772Z,40.96
2022-11-09T17:31:06.714Z,40.73
2022-11-09T17:33:33.089Z,40.85
2022-11-09T17:36:01.344Z,41.36
2022-11-09T17:38:29.444Z,41.37
2022-11-09T17:41:04.292Z,41.93
2022-11-09T17:43:32.651Z,41.59
2022-11-09T17:46:07.071Z,41.78
2022-11-09T17:48:35.581Z,41.93
2022-11-09T17:51:02.964Z,41.69
2022-11-09T17:53:30.092Z,41.70
2022-11-09T17:55:56.643Z,42.02
2022-11-09T17:58:23.701Z,41.82
2022-11-09T18:00:51.618Z,41.81
2022-11-09T18:03:18.217Z,41.79
2022-11-09T18:05:45.574Z,41.92
2022-11-09T18:08:14.920Z,41.95
2022-11-09T18:10:43.897Z,42.27
2022-11-09T18:13:10.551Z,41.86
2022-11-09T18:15:37.744Z,42.22
2022-11-09T18:18:05.312Z,41.83
2022-11-09T18:20:32.290Z,42.18
2022-11-09T18:22:58.736Z,42.09
2022-11-09T18:25:26.707Z,42.17
2022-11-09T18:27:53.034Z,42.08
2022-11-09T18:30:19.822Z,42.03
2022-11-09T18:32:46.633Z,42.27
2022-11-09T18:35:12.972Z,42.17
2022-11-09T18:37:39.728Z,41.98
2022-11-09T18:40:07.395Z,42.22
2022-11-09T18:42:33.920Z,41.91
2022-11-09T18:45:01.082Z,42.30
2022-11-09T18:47:30.738Z,42.24
2022-11-09T18:49:57.070Z,42.22
2022-11-09T18:52:23.432Z,42.03
2022-11-09T18:54:49.848Z,41.98
2022-11-09T18:57:19.781Z,42.26
2022-11-09T18:59:46.607Z,42.10
2022-11-09T19:02:13.951Z,42.25
2022-11-09T19:04:40.370Z,41.96
2022-11-09T19:07:06.820Z,42.33
2022-11-09T19:09:38.806Z,42.27
2022-11-09T19:12:08.734Z,42.08
2022-11-09T19:14:43.951Z,42.07
2022-11-09T19:17:15.114Z,42.30
2022-11-09T19:19:42.202Z,41.99
2022-11-09T19:22:15.250Z,42.32
2022-11-09T19:24:41.897Z,42.25
2022-11-09T19:27:08.984Z,42.00
2022-11-09T19:29:35.405Z,42.08
2022-11-09T19:32:02.048Z,42.38
2022-11-09T19:34:28.392Z,42.20
2022-11-09T19:36:54.909Z,42.15
2022-11-09T19:39:21.312Z,41.94
2022-11-09T19:41:48.541Z,42.09
2022-11-09T19:44:17.790Z,42.53
2022-11-09T19:46:44.343Z,42.32
2022-11-09T19:49:11.198Z,42.42
2022-11-09T19:51:38.677Z,42.74
2022-11-09T19:54:05.986Z,42.80
2022-11-09T19:56:33.341Z,42.55
2022-11-09T19:59:01.684Z,42.96
2022-11-09T20:01:29.062Z,42.81
2022-11-09T20:04:00.015Z,42.75
2022-11-09T20:06:27.680Z,42.77
2022-11-09T20:08:54.634Z,42.53
2022-11-09T20:11:43.281Z,42.66
2022-11-09T20:14:10.918Z,42.60
2022-11-09T20:16:38.358Z,42.85
2022-11-09T20:19:09.314Z,42.73
2022-11-09T20:21:36.596Z,42.61
2022-11-09T20:24:03.487Z,42.75
2022-11-09T20:26:29.854Z,42.88
2022-11-09T20:28:56.660Z,42.72
2022-11-09T20:31:23.490Z,42.58
2022-11-09T20:33:50.898Z,42.50
2022-11-09T20:36:18.991Z,42.57
2022-11-09T20:38:46.453Z,42.52
2022-11-09T20:41:13.194Z,42.63
2022-11-09T20:43:40.397Z,42.61
2022-11-09T20:46:09.813Z,43.15
2022-11-09T20:48:53.508Z,42.76
2022-11-09T20:51:21.526Z,43.07
2022-11-09T20:53:52.544Z,42.93
2022-11-09T20:56:20.289Z,43.12
2022-11-09T20:58:47.148Z,43.06
2022-11-09T21:01:27.305Z,43.43
2022-11-09T21:03:54.264Z,42.94
2022-11-09T21:06:23.794Z,43.42
2022-11-09T21:08:52.744Z,43.65
2022-11-09T21:11:20.206Z,43.46
2022-11-09T21:13:53.615Z,44.08
2022-11-09T21:16:21.448Z,43.65
2022-11-09T21:18:48.512Z,43.38
2022-11-09T21:21:20.088Z,43.94
2022-11-09T21:24:05.316Z,43.28
2022-11-09T21:26:50.884Z,43.36
2022-11-09T21:29:38.156Z,43.56
2022-11-09T21:32:05.815Z,43.88
2022-11-09T21:34:36.458Z,43.93
2022-11-09T21:37:03.846Z,43.50
2022-11-09T21:39:30.248Z,44.04
2022-11-09T21:41:57.498Z,44.06
2022-11-09T21:44:24.817Z,43.94
2022-11-09T21:46:51.364Z,44.06
2022-11-09T21:49:17.902Z,43.87
2022-11-09T21:51:46.692Z,44.46
2022-11-09T21:54:13.115Z,43.85
2022-11-09T21:56:39.701Z,43.88
2022-11-09T21:59:06.116Z,43.85
2022-11-09T22:01:32.794Z,44.24
2022-11-09T22:03:59.746Z,44.34
2022-11-09T22:06:26.871Z,44.10
2022-11-09T22:08:53.836Z,44.42
2022-11-09T22:11:46.031Z,44.64
2022-11-09T22:14:36.982Z,44.40
2022-11-09T22:17:05.412Z,44.15
2022-11-09T22:19:50.791Z,43.94
2022-11-09T22:22:17.184Z,44.40
2022-11-09T22:24:43.755Z,44.68
2022-11-09T22:27:10.133Z,44.25
2022-11-09T22:29:36.764Z,44.38
2022-11-09T22:32:03.521Z,44.42
2022-11-09T22:34:29.874Z,44.35
2022-11-09T22:36:56.435Z,44.93
2022-11-09T22:39:23.011Z,44.64
2022-11-09T22:41:49.642Z,45.08
2022-11-09T22:44:16.298Z,44.95
2022-11-09T22:46:42.839Z,44.82
2022-11-09T22:49:10.145Z,45.14
2022-11-09T22:51:36.539Z,45.00
2022-11-09T22:54:03.154Z,44.89
2022-11-09T22:56:29.511Z,45.03
2022-11-09T22:58:56.117Z,45.24
2022-11-09T23:01:25.052Z,44.84
2022-11-09T23:03:52.160Z,44.98
2022-11-09T23:06:21.112Z,45.12
2022-11-09T23:08:48.867Z,45.35
2022-11-09T23:11:19.100Z,45.63
2022-11-09T23:13:49.789Z,45.66
2022-11-09T23:16:16.397Z,45.45
2022-11-09T23:18:55.628Z,45.22
2022-11-09T23:21:29.610Z,45.69
2022-11-09T23:23:59.532Z,45.64
2022-11-09T23:26:27.533Z,45.52
2022-11-09T23:28:54.822Z,45.59
2022-11-09T23:31:25.952Z,45.44
2022-11-09T23:33:54.546Z,45.85
2022-11-09T23:36:21.895Z,45.25
2022-11-09T23:38:48.281Z,45.58
2022-11-09T23:41:15.597Z,45.82
2022-11-09T23:43:47.644Z,45.54
2022-11-09T23:46:15.769Z,45.79
2022-11-09T23:48:42.649Z,45.95
2022-11-09T23:51:09.537Z,45.82
2022-11-09T23:53:36.379Z,45.85
2022-11-09T23:56:06.944Z,46.48
2022-11-09T23:58:34.091Z,46.35
